sensor_id;sensor_type;location;lat;lon;timestamp;P1;durP1;ratioP1;P2;durP2;ratioP2
63902;SDS011;50072;50.678;13.938;2023-07-20T00:00:22;4.68;;;2.45;;
63902;SDS011;50072;50.678;13.938;2023-07-20T00:03:11;4.75;;;2.55;;
63902;SDS011;50072;50.678;13.938;2023-07-20T00:05:45;4.20;;;2.75;;
63902;SDS011;50072;50.678;13.938;2023-07-20T00:08:12;5.63;;;2.90;;
63902;SDS011;50072;50.678;13.938;2023-07-20T00:13:07;5.65;;;3.50;;
63902;SDS011;50072;50.678;13.938;2023-07-20T00:15:33;6.00;;;3.60;;
63902;SDS011;50072;50.678;13.938;2023-07-20T00:18:00;6.72;;;3.97;;
63902;SDS011;50072;50.678;13.938;2023-07-20T00:20:26;6.50;;;3.63;;
63902;SDS011;50072;50.678;13.938;2023-07-20T00:22:53;7.20;;;4.25;;
63902;SDS011;50072;50.678;13.938;2023-07-20T00:25:20;7.00;;;4.13;;
63902;SDS011;50072;50.678;13.938;2023-07-20T00:27:48;6.07;;;3.45;;
63902;SDS011;50072;50.678;13.938;2023-07-20T00:30:18;5.55;;;3.30;;
63902;SDS011;50072;50.678;13.938;2023-07-20T00:32:44;6.18;;;3.33;;
63902;SDS011;50072;50.678;13.938;2023-07-20T00:35:15;6.22;;;3.28;;
63902;SDS011;50072;50.678;13.938;2023-07-20T00:37:43;6.83;;;3.77;;
63902;SDS011;50072;50.678;13.938;2023-07-20T00:40:12;5.88;;;3.58;;
63902;SDS011;50072;50.678;13.938;2023-07-20T00:42:39;6.47;;;3.40;;
63902;SDS011;50072;50.678;13.938;2023-07-20T00:47:35;6.28;;;3.45;;
63902;SDS011;50072;50.678;13.938;2023-07-20T00:50:02;10.02;;;3.30;;
63902;SDS011;50072;50.678;13.938;2023-07-20T00:52:30;5.80;;;3.30;;
63902;SDS011;50072;50.678;13.938;2023-07-20T00:54:56;5.18;;;3.42;;
63902;SDS011;50072;50.678;13.938;2023-07-20T00:57:24;5.72;;;3.33;;
63902;SDS011;50072;50.678;13.938;2023-07-20T00:59:51;8.73;;;3.25;;
63902;SDS011;50072;50.678;13.938;2023-07-20T01:02:18;6.70;;;3.50;;
63902;SDS011;50072;50.678;13.938;2023-07-20T01:04:44;5.28;;;3.20;;
63902;SDS011;50072;50.678;13.938;2023-07-20T01:10:17;7.88;;;3.30;;
63902;SDS011;50072;50.678;13.938;2023-07-20T01:12:51;5.47;;;3.22;;
63902;SDS011;50072;50.678;13.938;2023-07-20T01:15:20;8.40;;;3.00;;
63902;SDS011;50072;50.678;13.938;2023-07-20T01:17:46;6.50;;;3.22;;
63902;SDS011;50072;50.678;13.938;2023-07-20T01:20:13;6.35;;;3.25;;
63902;SDS011;50072;50.678;13.938;2023-07-20T01:33:55;7.85;;;3.17;;
63902;SDS011;50072;50.678;13.938;2023-07-20T01:36:25;5.45;;;3.20;;
63902;SDS011;50072;50.678;13.938;2023-07-20T01:38:53;4.88;;;3.45;;
63902;SDS011;50072;50.678;13.938;2023-07-20T01:41:23;8.00;;;3.50;;
63902;SDS011;50072;50.678;13.938;2023-07-20T01:48:51;6.22;;;3.20;;
63902;SDS011;50072;50.678;13.938;2023-07-20T01:51:18;7.20;;;3.60;;
63902;SDS011;50072;50.678;13.938;2023-07-20T01:53:44;5.32;;;3.30;;
63902;SDS011;50072;50.678;13.938;2023-07-20T01:56:09;5.65;;;3.38;;
63902;SDS011;50072;50.678;13.938;2023-07-20T01:58:39;4.78;;;3.35;;
63902;SDS011;50072;50.678;13.938;2023-07-20T02:01:05;6.20;;;3.72;;
63902;SDS011;50072;50.678;13.938;2023-07-20T02:03:31;5.32;;;3.38;;
63902;SDS011;50072;50.678;13.938;2023-07-20T02:05:57;5.57;;;3.53;;
63902;SDS011;50072;50.678;13.938;2023-07-20T02:08:23;4.63;;;3.17;;
63902;SDS011;50072;50.678;13.938;2023-07-20T02:10:49;6.38;;;3.72;;
63902;SDS011;50072;50.678;13.938;2023-07-20T02:13:16;6.57;;;3.60;;
63902;SDS011;50072;50.678;13.938;2023-07-20T02:15:42;9.18;;;3.58;;
63902;SDS011;50072;50.678;13.938;2023-07-20T02:18:08;4.55;;;3.22;;
63902;SDS011;50072;50.678;13.938;2023-07-20T02:20:35;4.93;;;3.38;;
63902;SDS011;50072;50.678;13.938;2023-07-20T02:23:01;5.38;;;3.40;;
63902;SDS011;50072;50.678;13.938;2023-07-20T02:25:27;5.80;;;3.88;;
63902;SDS011;50072;50.678;13.938;2023-07-20T02:27:52;5.20;;;3.30;;
63902;SDS011;50072;50.678;13.938;2023-07-20T02:30:18;5.93;;;3.42;;
63902;SDS011;50072;50.678;13.938;2023-07-20T02:32:44;8.77;;;3.65;;
63902;SDS011;50072;50.678;13.938;2023-07-20T02:35:11;8.98;;;3.22;;
63902;SDS011;50072;50.678;13.938;2023-07-20T02:37:37;6.68;;;3.53;;
63902;SDS011;50072;50.678;13.938;2023-07-20T02:40:03;6.35;;;3.40;;
63902;SDS011;50072;50.678;13.938;2023-07-20T02:42:31;7.13;;;3.78;;
63902;SDS011;50072;50.678;13.938;2023-07-20T02:44:57;6.95;;;4.18;;
63902;SDS011;50072;50.678;13.938;2023-07-20T02:47:23;7.60;;;3.88;;
63902;SDS011;50072;50.678;13.938;2023-07-20T02:49:49;7.28;;;3.95;;
63902;SDS011;50072;50.678;13.938;2023-07-20T02:52:20;7.85;;;3.85;;
63902;SDS011;50072;50.678;13.938;2023-07-20T02:54:46;5.28;;;3.95;;
63902;SDS011;50072;50.678;13.938;2023-07-20T02:57:12;6.43;;;3.67;;
63902;SDS011;50072;50.678;13.938;2023-07-20T02:59:38;6.47;;;3.88;;
63902;SDS011;50072;50.678;13.938;2023-07-20T03:02:04;8.90;;;4.25;;
63902;SDS011;50072;50.678;13.938;2023-07-20T03:04:31;8.30;;;4.00;;
63902;SDS011;50072;50.678;13.938;2023-07-20T03:06:57;6.03;;;4.20;;
63902;SDS011;50072;50.678;13.938;2023-07-20T03:09:25;6.43;;;4.15;;
63902;SDS011;50072;50.678;13.938;2023-07-20T03:11:50;7.38;;;4.07;;
63902;SDS011;50072;50.678;13.938;2023-07-20T03:14:16;8.60;;;4.85;;
63902;SDS011;50072;50.678;13.938;2023-07-20T03:16:42;5.82;;;3.88;;
63902;SDS011;50072;50.678;13.938;2023-07-20T03:19:08;6.57;;;4.18;;
63902;SDS011;50072;50.678;13.938;2023-07-20T03:21:34;8.90;;;4.50;;
63902;SDS011;50072;50.678;13.938;2023-07-20T03:24:00;12.15;;;4.40;;
63902;SDS011;50072;50.678;13.938;2023-07-20T03:26:26;5.72;;;3.75;;
63902;SDS011;50072;50.678;13.938;2023-07-20T03:28:52;11.43;;;4.20;;
63902;SDS011;50072;50.678;13.938;2023-07-20T03:31:18;5.65;;;3.67;;
63902;SDS011;50072;50.678;13.938;2023-07-20T03:33:43;9.00;;;4.47;;
63902;SDS011;50072;50.678;13.938;2023-07-20T03:36:09;6.93;;;4.22;;
63902;SDS011;50072;50.678;13.938;2023-07-20T03:38:36;7.03;;;4.40;;
63902;SDS011;50072;50.678;13.938;2023-07-20T03:41:02;7.38;;;4.00;;
63902;SDS011;50072;50.678;13.938;2023-07-20T03:43:28;6.85;;;3.90;;
63902;SDS011;50072;50.678;13.938;2023-07-20T03:45:53;6.88;;;4.20;;
63902;SDS011;50072;50.678;13.938;2023-07-20T03:48:21;4.90;;;3.65;;
63902;SDS011;50072;50.678;13.938;2023-07-20T03:50:48;5.38;;;3.75;;
63902;SDS011;50072;50.678;13.938;2023-07-20T03:53:16;6.32;;;3.85;;
63902;SDS011;50072;50.678;13.938;2023-07-20T03:55:48;5.63;;;3.70;;
63902;SDS011;50072;50.678;13.938;2023-07-20T03:58:17;7.45;;;3.95;;
63902;SDS011;50072;50.678;13.938;2023-07-20T04:00:47;4.95;;;3.40;;
63902;SDS011;50072;50.678;13.938;2023-07-20T04:03:17;4.95;;;3.17;;
63902;SDS011;50072;50.678;13.938;2023-07-20T04:05:44;5.43;;;3.65;;
63902;SDS011;50072;50.678;13.938;2023-07-20T04:08:10;6.45;;;4.13;;
63902;SDS011;50072;50.678;13.938;2023-07-20T04:10:42;7.47;;;3.80;;
63902;SDS011;50072;50.678;13.938;2023-07-20T04:13:10;5.47;;;3.60;;
63902;SDS011;50072;50.678;13.938;2023-07-20T04:15:36;7.15;;;3.30;;
63902;SDS011;50072;50.678;13.938;2023-07-20T04:18:02;5.68;;;3.33;;
63902;SDS011;50072;50.678;13.938;2023-07-20T04:20:28;4.13;;;3.08;;
63902;SDS011;50072;50.678;13.938;2023-07-20T04:22:54;5.25;;;3.42;;
63902;SDS011;50072;50.678;13.938;2023-07-20T04:25:20;5.40;;;3.13;;
63902;SDS011;50072;50.678;13.938;2023-07-20T04:27:47;6.20;;;3.67;;
63902;SDS011;50072;50.678;13.938;2023-07-20T04:30:13;4.43;;;3.40;;
63902;SDS011;50072;50.678;13.938;2023-07-20T04:32:41;5.72;;;3.50;;
63902;SDS011;50072;50.678;13.938;2023-07-20T04:35:09;6.25;;;3.67;;
63902;SDS011;50072;50.678;13.938;2023-07-20T04:37:35;5.63;;;3.38;;
63902;SDS011;50072;50.678;13.938;2023-07-20T04:40:01;5.30;;;3.67;;
63902;SDS011;50072;50.678;13.938;2023-07-20T04:42:28;4.20;;;3.17;;
63902;SDS011;50072;50.678;13.938;2023-07-20T04:44:54;6.22;;;3.55;;
63902;SDS011;50072;50.678;13.938;2023-07-20T04:49:48;8.55;;;4.20;;
63902;SDS011;50072;50.678;13.938;2023-07-20T04:52:14;6.97;;;3.72;;
63902;SDS011;50072;50.678;13.938;2023-07-20T04:54:40;4.88;;;3.28;;
63902;SDS011;50072;50.678;13.938;2023-07-20T04:57:10;5.30;;;3.13;;
63902;SDS011;50072;50.678;13.938;2023-07-20T04:59:39;6.13;;;3.60;;
63902;SDS011;50072;50.678;13.938;2023-07-20T05:02:05;6.45;;;3.53;;
63902;SDS011;50072;50.678;13.938;2023-07-20T05:04:31;4.90;;;3.10;;
63902;SDS011;50072;50.678;13.938;2023-07-20T05:06:57;4.40;;;3.22;;
63902;SDS011;50072;50.678;13.938;2023-07-20T05:09:23;4.50;;;3.50;;
63902;SDS011;50072;50.678;13.938;2023-07-20T05:11:49;4.40;;;3.08;;
63902;SDS011;50072;50.678;13.938;2023-07-20T05:14:16;6.47;;;3.50;;
63902;SDS011;50072;50.678;13.938;2023-07-20T05:16:43;5.82;;;3.25;;
63902;SDS011;50072;50.678;13.938;2023-07-20T05:19:11;4.80;;;3.20;;
63902;SDS011;50072;50.678;13.938;2023-07-20T05:21:37;4.57;;;3.30;;
63902;SDS011;50072;50.678;13.938;2023-07-20T05:24:03;4.68;;;3.08;;
63902;SDS011;50072;50.678;13.938;2023-07-20T05:26:31;5.97;;;3.17;;
63902;SDS011;50072;50.678;13.938;2023-07-20T05:28:56;4.82;;;3.25;;
63902;SDS011;50072;50.678;13.938;2023-07-20T05:31:23;4.40;;;3.00;;
63902;SDS011;50072;50.678;13.938;2023-07-20T05:33:50;4.20;;;3.05;;
63902;SDS011;50072;50.678;13.938;2023-07-20T05:36:15;5.30;;;3.10;;
63902;SDS011;50072;50.678;13.938;2023-07-20T05:38:42;8.43;;;3.70;;
63902;SDS011;50072;50.678;13.938;2023-07-20T05:41:08;6.07;;;2.90;;
63902;SDS011;50072;50.678;13.938;2023-07-20T05:43:35;4.80;;;2.90;;
63902;SDS011;50072;50.678;13.938;2023-07-20T05:46:01;6.13;;;3.50;;
63902;SDS011;50072;50.678;13.938;2023-07-20T05:48:27;4.28;;;2.88;;
63902;SDS011;50072;50.678;13.938;2023-07-20T05:50:53;4.22;;;3.00;;
63902;SDS011;50072;50.678;13.938;2023-07-20T05:53:19;3.90;;;3.00;;
63902;SDS011;50072;50.678;13.938;2023-07-20T05:55:51;5.13;;;2.72;;
63902;SDS011;50072;50.678;13.938;2023-07-20T05:58:18;5.72;;;3.35;;
63902;SDS011;50072;50.678;13.938;2023-07-20T06:00:47;5.65;;;2.97;;
63902;SDS011;50072;50.678;13.938;2023-07-20T06:03:13;6.22;;;2.90;;
63902;SDS011;50072;50.678;13.938;2023-07-20T06:05:39;7.65;;;3.13;;
63902;SDS011;50072;50.678;13.938;2023-07-20T06:08:05;6.10;;;2.88;;
63902;SDS011;50072;50.678;13.938;2023-07-20T06:10:32;4.10;;;2.60;;
63902;SDS011;50072;50.678;13.938;2023-07-20T06:13:06;4.45;;;2.80;;
63902;SDS011;50072;50.678;13.938;2023-07-20T06:15:33;5.38;;;3.00;;
63902;SDS011;50072;50.678;13.938;2023-07-20T06:18:16;3.75;;;2.60;;
63902;SDS011;50072;50.678;13.938;2023-07-20T06:26:06;4.53;;;3.10;;
63902;SDS011;50072;50.678;13.938;2023-07-20T06:28:39;6.82;;;3.20;;
63902;SDS011;50072;50.678;13.938;2023-07-20T06:31:07;4.25;;;2.85;;
63902;SDS011;50072;50.678;13.938;2023-07-20T06:33:34;5.38;;;3.10;;
63902;SDS011;50072;50.678;13.938;2023-07-20T06:36:04;4.07;;;3.13;;
63902;SDS011;50072;50.678;13.938;2023-07-20T06:38:30;5.55;;;3.05;;
63902;SDS011;50072;50.678;13.938;2023-07-20T06:40:55;5.35;;;3.08;;
63902;SDS011;50072;50.678;13.938;2023-07-20T06:43:21;7.20;;;3.30;;
63902;SDS011;50072;50.678;13.938;2023-07-20T06:45:53;6.20;;;3.75;;
63902;SDS011;50072;50.678;13.938;2023-07-20T06:48:19;6.38;;;3.20;;
63902;SDS011;50072;50.678;13.938;2023-07-20T06:50:45;5.05;;;3.72;;
63902;SDS011;50072;50.678;13.938;2023-07-20T06:53:12;5.75;;;3.30;;
63902;SDS011;50072;50.678;13.938;2023-07-20T06:55:38;6.63;;;3.20;;
63902;SDS011;50072;50.678;13.938;2023-07-20T06:58:05;7.18;;;3.63;;
63902;SDS011;50072;50.678;13.938;2023-07-20T07:00:33;6.80;;;3.53;;
63902;SDS011;50072;50.678;13.938;2023-07-20T07:02:58;4.50;;;3.25;;
63902;SDS011;50072;50.678;13.938;2023-07-20T07:05:24;5.53;;;3.60;;
63902;SDS011;50072;50.678;13.938;2023-07-20T07:07:50;6.10;;;3.53;;
63902;SDS011;50072;50.678;13.938;2023-07-20T07:10:23;6.88;;;3.20;;
63902;SDS011;50072;50.678;13.938;2023-07-20T07:12:50;8.93;;;3.40;;
63902;SDS011;50072;50.678;13.938;2023-07-20T07:15:16;6.57;;;2.83;;
63902;SDS011;50072;50.678;13.938;2023-07-20T07:17:43;5.35;;;3.05;;
63902;SDS011;50072;50.678;13.938;2023-07-20T07:20:10;6.70;;;3.35;;
63902;SDS011;50072;50.678;13.938;2023-07-20T07:22:35;7.53;;;3.50;;
63902;SDS011;50072;50.678;13.938;2023-07-20T07:25:07;6.07;;;3.67;;
63902;SDS011;50072;50.678;13.938;2023-07-20T07:27:34;6.85;;;3.50;;
63902;SDS011;50072;50.678;13.938;2023-07-20T07:30:00;4.03;;;1.92;;
63902;SDS011;50072;50.678;13.938;2023-07-20T07:32:25;3.05;;;1.85;;
63902;SDS011;50072;50.678;13.938;2023-07-20T07:34:51;2.00;;;1.13;;
63902;SDS011;50072;50.678;13.938;2023-07-20T07:37:18;1.90;;;1.30;;
63902;SDS011;50072;50.678;13.938;2023-07-20T07:39:45;2.40;;;1.50;;
63902;SDS011;50072;50.678;13.938;2023-07-20T07:42:11;2.20;;;1.45;;
63902;SDS011;50072;50.678;13.938;2023-07-20T07:44:38;2.10;;;1.60;;
63902;SDS011;50072;50.678;13.938;2023-07-20T07:47:05;2.55;;;1.73;;
63902;SDS011;50072;50.678;13.938;2023-07-20T07:49:31;5.05;;;1.60;;
63902;SDS011;50072;50.678;13.938;2023-07-20T07:51:57;1.73;;;1.40;;
63902;SDS011;50072;50.678;13.938;2023-07-20T07:54:23;2.35;;;1.48;;
63902;SDS011;50072;50.678;13.938;2023-07-20T07:56:55;1.80;;;1.27;;
63902;SDS011;50072;50.678;13.938;2023-07-20T07:59:21;1.70;;;1.20;;
63902;SDS011;50072;50.678;13.938;2023-07-20T08:01:49;1.98;;;1.17;;
63902;SDS011;50072;50.678;13.938;2023-07-20T08:04:15;2.05;;;1.33;;
63902;SDS011;50072;50.678;13.938;2023-07-20T08:06:41;2.58;;;1.27;;
63902;SDS011;50072;50.678;13.938;2023-07-20T08:09:08;2.75;;;1.40;;
63902;SDS011;50072;50.678;13.938;2023-07-20T08:11:34;14.40;;;2.00;;
63902;SDS011;50072;50.678;13.938;2023-07-20T08:14:02;2.20;;;1.50;;
63902;SDS011;50072;50.678;13.938;2023-07-20T08:16:28;2.17;;;1.40;;
63902;SDS011;50072;50.678;13.938;2023-07-20T08:18:54;2.53;;;1.27;;
63902;SDS011;50072;50.678;13.938;2023-07-20T08:21:19;1.83;;;1.30;;
63902;SDS011;50072;50.678;13.938;2023-07-20T08:23:45;2.85;;;1.58;;
63902;SDS011;50072;50.678;13.938;2023-07-20T08:26:17;4.25;;;1.60;;
63902;SDS011;50072;50.678;13.938;2023-07-20T08:28:44;4.60;;;1.35;;
63902;SDS011;50072;50.678;13.938;2023-07-20T08:31:11;3.60;;;1.30;;
63902;SDS011;50072;50.678;13.938;2023-07-20T08:33:37;2.20;;;1.40;;
63902;SDS011;50072;50.678;13.938;2023-07-20T08:38:49;2.47;;;1.20;;
63902;SDS011;50072;50.678;13.938;2023-07-20T08:43:53;2.15;;;1.20;;
63902;SDS011;50072;50.678;13.938;2023-07-20T08:46:26;4.78;;;1.75;;
63902;SDS011;50072;50.678;13.938;2023-07-20T08:48:54;4.75;;;1.30;;
63902;SDS011;50072;50.678;13.938;2023-07-20T08:51:22;3.95;;;1.48;;
63902;SDS011;50072;50.678;13.938;2023-07-20T08:53:49;4.28;;;1.30;;
63902;SDS011;50072;50.678;13.938;2023-07-20T08:56:16;4.72;;;1.48;;
63902;SDS011;50072;50.678;13.938;2023-07-20T08:58:44;6.00;;;1.50;;
63902;SDS011;50072;50.678;13.938;2023-07-20T09:01:11;1.85;;;1.30;;
63902;SDS011;50072;50.678;13.938;2023-07-20T09:03:38;2.80;;;1.08;;
63902;SDS011;50072;50.678;13.938;2023-07-20T09:06:05;6.30;;;1.40;;
63902;SDS011;50072;50.678;13.938;2023-07-20T09:08:31;3.80;;;1.30;;
63902;SDS011;50072;50.678;13.938;2023-07-20T09:10:57;3.85;;;1.20;;
63902;SDS011;50072;50.678;13.938;2023-07-20T09:13:24;4.28;;;1.15;;
63902;SDS011;50072;50.678;13.938;2023-07-20T09:15:54;2.03;;;1.10;;
63902;SDS011;50072;50.678;13.938;2023-07-20T09:18:24;2.75;;;1.23;;
63902;SDS011;50072;50.678;13.938;2023-07-20T09:20:58;2.53;;;1.10;;
63902;SDS011;50072;50.678;13.938;2023-07-20T09:23:36;1.60;;;1.10;;
63902;SDS011;50072;50.678;13.938;2023-07-20T09:26:12;1.60;;;1.10;;
63902;SDS011;50072;50.678;13.938;2023-07-20T09:28:42;3.28;;;1.23;;
63902;SDS011;50072;50.678;13.938;2023-07-20T09:31:16;2.35;;;1.20;;
63902;SDS011;50072;50.678;13.938;2023-07-20T09:33:43;1.83;;;1.10;;
63902;SDS011;50072;50.678;13.938;2023-07-20T09:36:11;3.58;;;1.23;;
63902;SDS011;50072;50.678;13.938;2023-07-20T09:38:38;3.58;;;2.08;;
63902;SDS011;50072;50.678;13.938;2023-07-20T09:41:08;4.05;;;1.90;;
63902;SDS011;50072;50.678;13.938;2023-07-20T09:43:38;3.90;;;1.57;;
63902;SDS011;50072;50.678;13.938;2023-07-20T09:46:06;1.60;;;1.10;;
63902;SDS011;50072;50.678;13.938;2023-07-20T09:48:33;2.05;;;1.30;;
63902;SDS011;50072;50.678;13.938;2023-07-20T09:50:58;2.45;;;1.20;;
63902;SDS011;50072;50.678;13.938;2023-07-20T09:53:25;2.20;;;1.38;;
63902;SDS011;50072;50.678;13.938;2023-07-20T09:55:52;3.33;;;1.23;;
63902;SDS011;50072;50.678;13.938;2023-07-20T09:58:19;42.25;;;5.25;;
63902;SDS011;50072;50.678;13.938;2023-07-20T10:00:45;5.35;;;1.58;;
63902;SDS011;50072;50.678;13.938;2023-07-20T10:03:19;2.45;;;1.50;;
63902;SDS011;50072;50.678;13.938;2023-07-20T10:05:52;3.30;;;1.73;;
63902;SDS011;50072;50.678;13.938;2023-07-20T10:08:24;18.75;;;2.78;;
63902;SDS011;50072;50.678;13.938;2023-07-20T10:10:50;3.45;;;1.30;;
63902;SDS011;50072;50.678;13.938;2023-07-20T10:13:25;2.78;;;1.30;;
63902;SDS011;50072;50.678;13.938;2023-07-20T10:16:02;3.40;;;1.20;;
63902;SDS011;50072;50.678;13.938;2023-07-20T10:18:50;1.67;;;1.10;;
63902;SDS011;50072;50.678;13.938;2023-07-20T10:21:20;2.83;;;1.33;;
63902;SDS011;50072;50.678;13.938;2023-07-20T10:23:48;1.73;;;1.10;;
63902;SDS011;50072;50.678;13.938;2023-07-20T10:26:14;2.30;;;1.33;;
63902;SDS011;50072;50.678;13.938;2023-07-20T10:28:41;6.10;;;1.45;;
63902;SDS011;50072;50.678;13.938;2023-07-20T10:31:11;3.25;;;1.30;;
63902;SDS011;50072;50.678;13.938;2023-07-20T10:33:38;2.47;;;1.33;;
63902;SDS011;50072;50.678;13.938;2023-07-20T10:36:05;3.42;;;1.20;;
63902;SDS011;50072;50.678;13.938;2023-07-20T10:38:38;2.15;;;1.10;;
63902;SDS011;50072;50.678;13.938;2023-07-20T10:44:06;5.43;;;1.27;;
63902;SDS011;50072;50.678;13.938;2023-07-20T10:49:10;4.00;;;1.50;;
63902;SDS011;50072;50.678;13.938;2023-07-20T10:51:44;2.45;;;1.30;;
63902;SDS011;50072;50.678;13.938;2023-07-20T10:54:37;2.60;;;1.30;;
63902;SDS011;50072;50.678;13.938;2023-07-20T10:59:50;8.13;;;1.30;;
63902;SDS011;50072;50.678;13.938;2023-07-20T11:02:20;2.13;;;1.20;;
63902;SDS011;50072;50.678;13.938;2023-07-20T11:07:17;2.97;;;1.52;;
63902;SDS011;50072;50.678;13.938;2023-07-20T11:10:17;2.33;;;1.10;;
63902;SDS011;50072;50.678;13.938;2023-07-20T11:13:31;3.80;;;1.17;;
63902;SDS011;50072;50.678;13.938;2023-07-20T11:18:21;5.38;;;1.13;;
63902;SDS011;50072;50.678;13.938;2023-07-20T11:20:52;2.40;;;1.20;;
63902;SDS011;50072;50.678;13.938;2023-07-20T11:23:22;2.70;;;1.10;;
63902;SDS011;50072;50.678;13.938;2023-07-20T11:25:49;3.17;;;0.98;;
63902;SDS011;50072;50.678;13.938;2023-07-20T11:28:15;2.47;;;0.80;;
63902;SDS011;50072;50.678;13.938;2023-07-20T11:30:41;3.42;;;1.00;;
63902;SDS011;50072;50.678;13.938;2023-07-20T11:33:10;3.47;;;1.20;;
63902;SDS011;50072;50.678;13.938;2023-07-20T11:35:45;3.10;;;1.23;;
63902;SDS011;50072;50.678;13.938;2023-07-20T11:38:12;4.50;;;1.40;;
63902;SDS011;50072;50.678;13.938;2023-07-20T11:40:44;2.75;;;1.10;;
63902;SDS011;50072;50.678;13.938;2023-07-20T11:43:12;2.08;;;1.10;;
63902;SDS011;50072;50.678;13.938;2023-07-20T11:45:39;4.88;;;1.10;;
63902;SDS011;50072;50.678;13.938;2023-07-20T11:48:06;2.35;;;1.23;;
63902;SDS011;50072;50.678;13.938;2023-07-20T11:50:37;1.98;;;1.20;;
63902;SDS011;50072;50.678;13.938;2023-07-20T11:53:04;2.72;;;1.40;;
63902;SDS011;50072;50.678;13.938;2023-07-20T11:55:32;3.35;;;1.42;;
63902;SDS011;50072;50.678;13.938;2023-07-20T11:58:02;2.78;;;1.10;;
63902;SDS011;50072;50.678;13.938;2023-07-20T12:00:33;2.67;;;1.13;;
63902;SDS011;50072;50.678;13.938;2023-07-20T12:03:00;1.00;;;0.77;;
63902;SDS011;50072;50.678;13.938;2023-07-20T12:05:26;1.38;;;0.77;;
63902;SDS011;50072;50.678;13.938;2023-07-20T12:07:53;1.73;;;0.80;;
63902;SDS011;50072;50.678;13.938;2023-07-20T12:10:26;3.33;;;1.05;;
63902;SDS011;50072;50.678;13.938;2023-07-20T12:12:54;1.25;;;0.90;;
63902;SDS011;50072;50.678;13.938;2023-07-20T12:15:23;2.92;;;0.93;;
63902;SDS011;50072;50.678;13.938;2023-07-20T12:17:52;1.23;;;0.90;;
63902;SDS011;50072;50.678;13.938;2023-07-20T12:20:32;2.35;;;0.90;;
63902;SDS011;50072;50.678;13.938;2023-07-20T12:23:04;1.65;;;0.80;;
63902;SDS011;50072;50.678;13.938;2023-07-20T12:28:08;2.72;;;1.08;;
63902;SDS011;50072;50.678;13.938;2023-07-20T12:30:38;1.50;;;0.80;;
63902;SDS011;50072;50.678;13.938;2023-07-20T12:33:06;1.10;;;0.80;;
63902;SDS011;50072;50.678;13.938;2023-07-20T12:35:33;1.08;;;0.77;;
63902;SDS011;50072;50.678;13.938;2023-07-20T12:37:59;1.98;;;0.70;;
63902;SDS011;50072;50.678;13.938;2023-07-20T12:40:25;1.25;;;0.70;;
63902;SDS011;50072;50.678;13.938;2023-07-20T12:42:53;3.33;;;0.82;;
63902;SDS011;50072;50.678;13.938;2023-07-20T12:45:19;1.45;;;0.70;;
63902;SDS011;50072;50.678;13.938;2023-07-20T12:47:45;1.20;;;0.90;;
63902;SDS011;50072;50.678;13.938;2023-07-20T12:50:11;1.70;;;1.00;;
63902;SDS011;50072;50.678;13.938;2023-07-20T12:52:37;2.58;;;0.98;;
63902;SDS011;50072;50.678;13.938;2023-07-20T12:55:04;1.27;;;0.80;;
63902;SDS011;50072;50.678;13.938;2023-07-20T12:57:31;1.83;;;1.05;;
63902;SDS011;50072;50.678;13.938;2023-07-20T12:59:58;2.53;;;0.90;;
63902;SDS011;50072;50.678;13.938;2023-07-20T13:02:24;2.17;;;0.80;;
63902;SDS011;50072;50.678;13.938;2023-07-20T13:04:49;1.00;;;0.80;;
63902;SDS011;50072;50.678;13.938;2023-07-20T13:07:18;3.38;;;1.00;;
63902;SDS011;50072;50.678;13.938;2023-07-20T13:09:55;3.17;;;1.17;;
63902;SDS011;50072;50.678;13.938;2023-07-20T13:12:21;1.60;;;1.00;;
63902;SDS011;50072;50.678;13.938;2023-07-20T13:14:48;2.28;;;1.27;;
63902;SDS011;50072;50.678;13.938;2023-07-20T13:19:50;2.72;;;1.25;;
63902;SDS011;50072;50.678;13.938;2023-07-20T13:24:53;3.47;;;1.15;;
63902;SDS011;50072;50.678;13.938;2023-07-20T13:27:24;4.32;;;1.33;;
63902;SDS011;50072;50.678;13.938;2023-07-20T13:29:52;6.53;;;1.38;;
63902;SDS011;50072;50.678;13.938;2023-07-20T13:32:23;2.30;;;1.40;;
63902;SDS011;50072;50.678;13.938;2023-07-20T13:34:53;3.33;;;1.27;;
63902;SDS011;50072;50.678;13.938;2023-07-20T13:37:20;2.50;;;1.30;;
63902;SDS011;50072;50.678;13.938;2023-07-20T13:39:47;2.03;;;1.13;;
63902;SDS011;50072;50.678;13.938;2023-07-20T13:42:12;1.55;;;1.00;;
63902;SDS011;50072;50.678;13.938;2023-07-20T13:44:38;3.03;;;1.20;;
63902;SDS011;50072;50.678;13.938;2023-07-20T13:47:04;2.65;;;1.38;;
63902;SDS011;50072;50.678;13.938;2023-07-20T13:49:32;2.10;;;1.10;;
63902;SDS011;50072;50.678;13.938;2023-07-20T13:51:58;1.17;;;0.80;;
63902;SDS011;50072;50.678;13.938;2023-07-20T13:54:25;2.30;;;1.10;;
63902;SDS011;50072;50.678;13.938;2023-07-20T13:56:51;2.92;;;1.00;;
63902;SDS011;50072;50.678;13.938;2023-07-20T13:59:20;2.10;;;1.13;;
63902;SDS011;50072;50.678;13.938;2023-07-20T14:01:47;1.83;;;1.10;;
63902;SDS011;50072;50.678;13.938;2023-07-20T14:04:14;3.17;;;1.02;;
63902;SDS011;50072;50.678;13.938;2023-07-20T14:06:40;2.60;;;1.20;;
63902;SDS011;50072;50.678;13.938;2023-07-20T14:09:07;2.40;;;1.00;;
63902;SDS011;50072;50.678;13.938;2023-07-20T14:11:34;1.48;;;1.10;;
63902;SDS011;50072;50.678;13.938;2023-07-20T14:14:02;2.17;;;1.20;;
63902;SDS011;50072;50.678;13.938;2023-07-20T14:16:29;5.35;;;1.42;;
63902;SDS011;50072;50.678;13.938;2023-07-20T14:18:58;4.78;;;1.50;;
63902;SDS011;50072;50.678;13.938;2023-07-20T14:21:24;2.67;;;1.30;;
63902;SDS011;50072;50.678;13.938;2023-07-20T14:23:50;3.83;;;1.40;;
63902;SDS011;50072;50.678;13.938;2023-07-20T14:26:20;1.98;;;1.30;;
63902;SDS011;50072;50.678;13.938;2023-07-20T14:28:46;1.60;;;1.10;;
63902;SDS011;50072;50.678;13.938;2023-07-20T14:31:12;2.30;;;1.30;;
63902;SDS011;50072;50.678;13.938;2023-07-20T14:33:39;2.75;;;1.17;;
63902;SDS011;50072;50.678;13.938;2023-07-20T14:36:05;2.97;;;1.20;;
63902;SDS011;50072;50.678;13.938;2023-07-20T14:38:31;2.10;;;1.10;;
63902;SDS011;50072;50.678;13.938;2023-07-20T14:40:58;14.95;;;2.72;;
63902;SDS011;50072;50.678;13.938;2023-07-20T14:43:25;3.42;;;1.30;;
63902;SDS011;50072;50.678;13.938;2023-07-20T14:45:51;2.20;;;1.00;;
63902;SDS011;50072;50.678;13.938;2023-07-20T14:48:17;2.30;;;1.30;;
63902;SDS011;50072;50.678;13.938;2023-07-20T14:50:42;4.65;;;1.08;;
63902;SDS011;50072;50.678;13.938;2023-07-20T14:53:12;3.10;;;1.05;;
63902;SDS011;50072;50.678;13.938;2023-07-20T14:55:38;1.08;;;0.80;;
63902;SDS011;50072;50.678;13.938;2023-07-20T14:58:04;2.90;;;0.80;;
63902;SDS011;50072;50.678;13.938;2023-07-20T15:00:30;0.80;;;0.70;;
63902;SDS011;50072;50.678;13.938;2023-07-20T15:02:56;1.23;;;0.70;;
63902;SDS011;50072;50.678;13.938;2023-07-20T15:05:22;1.52;;;0.70;;
63902;SDS011;50072;50.678;13.938;2023-07-20T15:07:49;1.42;;;0.70;;
63902;SDS011;50072;50.678;13.938;2023-07-20T15:10:16;2.08;;;0.70;;
63902;SDS011;50072;50.678;13.938;2023-07-20T15:12:43;1.13;;;0.73;;
63902;SDS011;50072;50.678;13.938;2023-07-20T15:15:12;0.95;;;0.50;;
63902;SDS011;50072;50.678;13.938;2023-07-20T15:17:42;1.40;;;0.57;;
63902;SDS011;50072;50.678;13.938;2023-07-20T15:20:09;1.15;;;0.80;;
63902;SDS011;50072;50.678;13.938;2023-07-20T15:22:36;1.83;;;0.60;;
63902;SDS011;50072;50.678;13.938;2023-07-20T15:25:04;4.45;;;0.55;;
63902;SDS011;50072;50.678;13.938;2023-07-20T15:30:01;1.35;;;0.60;;
63902;SDS011;50072;50.678;13.938;2023-07-20T15:32:27;1.40;;;0.80;;
63902;SDS011;50072;50.678;13.938;2023-07-20T15:34:53;0.93;;;0.65;;
63902;SDS011;50072;50.678;13.938;2023-07-20T15:37:23;1.20;;;0.80;;